Pride Of Burgundy — MQSQ9 — position and weather

sailwx.info

Track history (hours):
 
Tides and Currents Weather Stations Pressure Air Temp Water Temp Dewpoint Dewpoint Depression Visibility Wind Speed Wind Dir Waves Ship Positions

Pride Of Burgundy

Operator: P & O Ferries

Last reported at 2017-Jan-23 16:34 UTC. Time now 2017-Jan-23 16:46 UTC.
Position N 51°07' E 001°21'.

Length 180 m; draft 6.2 m.

Type: Passenger vessel. MMSI: 232001470.

Date/timePositionNaut miles runAvg speedWind from/ knotsBaromVisibWave heightAir tempDewpointWater temp
2017-Jan-23 16:34N 51°07' E 001°21'0 0.1
2017-Jan-23 15:33N 51°07' E 001°21'3 3.4
2017-Jan-23 14:33N 51°06' E 001°26'1717.4
2017-Jan-23 13:33N 50°58' E 001°50'0 0.1
2017-Jan-23 12:34N 50°58' E 001°50'1818.1
2017-Jan-23 11:34N 51°06' E 001°24'3 2.8
2017-Jan-23 10:33N 51°07' E 001°20'0 0.3
2017-Jan-23 09:32N 51°08' E 001°21'0 0.0
2017-Jan-23 08:30N 51°08' E 001°21'0 0.0
2017-Jan-23 07:33N 51°08' E 001°21'0 0.0
2017-Jan-23 06:30N 51°08' E 001°21'0 0.3
2017-Jan-23 05:33N 51°07' E 001°20'4 3.8
2017-Jan-23 04:33N 51°06' E 001°26'1817.8
2017-Jan-23 03:34N 50°58' E 001°51'0 0.1
2017-Jan-23 02:33N 50°58' E 001°51'1212.5
2017-Jan-23 01:33N 51°02' E 001°32'9 9.3
2017-Jan-23 00:33N 51°07' E 001°20'6 6.2
2017-Jan-22 23:34N 51°05' E 001°29'1515.3
2017-Jan-22 22:34N 50°58' E 001°51'0 0.4
2017-Jan-22 21:33N 50°58' E 001°50'1918.9
2017-Jan-22 20:33N 51°06' E 001°23'2 2.0
2017-Jan-22 19:33N 51°07' E 001°20'1010.4
2017-Jan-22 18:33N 51°02' E 001°35'1111.1
2017-Jan-22 17:33N 50°58' E 001°51'5 5.2
2017-Jan-22 16:33N 50°58' E 001°43'1717.0
2017-Jan-22 15:33N 51°07' E 001°20'3 2.6
2017-Jan-22 14:34N 51°07' E 001°24'1717.4
2017-Jan-22 13:34N 50°58' E 001°48'2 1.7
2017-Jan-22 12:33N 50°58' E 001°51'1616.0
2017-Jan-22 11:33N 51°04' E 001°28'5 5.5
2017-Jan-22 10:34N 51°07' E 001°20'1514.9
2017-Jan-22 09:34N 51°00' E 001°41'7 6.6
2017-Jan-22 08:33N 50°58' E 001°51'1111.1
2017-Jan-22 07:34N 51°00' E 001°34'1111.3
2017-Jan-22 06:33N 51°07' E 001°20'0 0.0
2017-Jan-22 05:33N 51°07' E 001°20'6 6.0
2017-Jan-22 04:34N 51°05' E 001°29'1615.6
2017-Jan-22 03:34N 50°58' E 001°51'0 0.0
2017-Jan-22 02:34N 50°58' E 001°51'1111.1
2017-Jan-22 01:33N 50°59' E 001°33'1211.8
2017-Jan-22 00:32N 51°07' E 001°20'9 9.0
2017-Jan-21 23:33N 51°03' E 001°33'1312.7
2017-Jan-21 22:33N 50°58' E 001°51'8 8.5
2017-Jan-21 21:34N 51°00' E 001°38'1313.3
2017-Jan-21 20:33N 51°07' E 001°20'8 8.1
2017-Jan-21 19:33N 51°05' E 001°32'1413.5
2017-Jan-21 18:33N 50°58' E 001°51'0 0.0
2017-Jan-21 17:33N 50°58' E 001°51'1312.9
2017-Jan-21 16:33N 51°02' E 001°32'9 8.9
2017-Jan-21 15:33N 51°07' E 001°20'8 8.5
2017-Jan-21 14:34N 51°03' E 001°32'1313.1
2017-Jan-21 13:33N 50°58' E 001°51'6 5.7
2017-Jan-21 12:33N 50°58' E 001°42'1716.4
2017-Jan-21 11:33N 51°07' E 001°20'0 0.2
2017-Jan-21 10:33N 51°07' E 001°20'1110.6
2017-Jan-21 09:34N 51°03' E 001°35'1110.9
2017-Jan-21 08:33N 50°58' E 001°51'7 7.3
2017-Jan-21 07:34N 50°58' E 001°40'1515.1
2017-Jan-21 06:33N 51°07' E 001°20'0 0.2
2017-Jan-21 05:33N 51°07' E 001°20'9 8.6
2017-Jan-21 04:33N 51°04' E 001°33'1312.9
2017-Jan-21 03:33N 50°58' E 001°51'0 0.0
2017-Jan-21 02:33N 50°58' E 001°51'1211.6
2017-Jan-21 01:33N 51°00' E 001°33'1110.7
2017-Jan-21 00:33N 51°07' E 001°20'5 5.4
2017-Jan-20 23:34N 51°04' E 001°27'1616.1
2017-Jan-20 22:33N 50°58' E 001°51'0 0.1
2017-Jan-20 21:33N 50°58' E 001°51'1716.9
2017-Jan-20 20:33N 51°05' E 001°26'5 4.5
2017-Jan-20 19:34N 51°07' E 001°20'1110.8
2017-Jan-20 18:33N 51°03' E 001°36'1110.8
2017-Jan-20 17:33N 50°58' E 001°51'5 5.4
2017-Jan-20 16:33N 50°58' E 001°43'1716.8
2017-Jan-20 15:33N 51°07' E 001°20'1 0.5
2017-Jan-20 14:34N 51°07' E 001°21'1817.9
2017-Jan-20 13:33N 50°58' E 001°45'3 3.5
2017-Jan-20 12:33N 50°58' E 001°51'1414.4
2017-Jan-20 11:33N 51°03' E 001°30'7 7.3
2017-Jan-20 10:33N 51°07' E 001°20'9 9.0
2017-Jan-20 09:33N 51°03' E 001°33'1312.6
2017-Jan-20 08:33N 50°58' E 001°51'5 4.6
2017-Jan-20 07:33N 50°58' E 001°44'1817.5
2017-Jan-20 06:33N 51°07' E 001°20'0 0.0
2017-Jan-20 05:33N 51°07' E 001°20'8 8.5
2017-Jan-20 04:33N 51°04' E 001°32'1313.0
2017-Jan-20 03:33N 50°58' E 001°51'0 0.2
2017-Jan-20 02:33N 50°58' E 001°51'1111.3
2017-Jan-20 01:34N 51°02' E 001°34'1010.4
2017-Jan-20 00:33N 51°07' E 001°20'8 7.6
2017-Jan-19 23:33N 51°06' E 001°32'1414.3
2017-Jan-19 22:34N 50°58' E 001°51'1 1.4
2017-Jan-19 21:33N 50°58' E 001°49'1615.9
2017-Jan-19 20:34N 51°04' E 001°25'5 4.5
2017-Jan-19 19:32N 51°07' E 001°20'1212.2
2017-Jan-19 18:33N 51°02' E 001°37'10 9.6
2017-Jan-19 17:33N 50°58' E 001°51'9 8.6
2017-Jan-19 16:33N 51°00' E 001°38'1313.1
2017-Jan-19 15:33N 51°07' E 001°20'5 4.7
2017-Jan-19 14:33N 51°06' E 001°27'1716.8
2017-Jan-19 13:34N 50°58' E 001°51'2 1.6
2017-Jan-19 12:33N 50°58' E 001°48'1615.9
2017-Jan-19 11:33N 51°04' E 001°25'4 4.1
2017-Jan-19 10:31N 51°07' E 001°20'1111.9
2017-Jan-19 09:34N 51°02' E 001°35'1010.4
2017-Jan-19 08:33N 50°58' E 001°51'5 5.1
2017-Jan-19 07:33N 50°58' E 001°43'1717.1
2017-Jan-19 06:33N 51°07' E 001°20'0 0.1
2017-Jan-19 05:33N 51°07' E 001°20'6 6.3
2017-Jan-19 04:33N 51°05' E 001°29'1515.3
2017-Jan-19 03:34N 50°58' E 001°51'0 0.0
2017-Jan-19 02:34N 50°58' E 001°51'1313.4
2017-Jan-19 01:33N 51°01' E 001°30'9 9.2
2017-Jan-19 00:33N 51°07' E 001°20'6 6.2
2017-Jan-18 23:34N 51°06' E 001°30'1615.5
2017-Jan-18 22:33N 50°58' E 001°51'2 1.9
2017-Jan-18 21:33N 50°58' E 001°48'1817.5
2017-Jan-18 20:33N 51°06' E 001°23'2 2.3
2017-Jan-18 19:33N 51°07' E 001°20'1211.8
2017-Jan-18 18:33N 51°03' E 001°37'10 9.9
2017-Jan-18 17:33N 50°58' E 001°51'7 7.5
2017-Jan-18 16:34N 50°58' E 001°39'1514.9
2017-Jan-18 15:33N 51°07' E 001°20'4 4.1
2017-Jan-18 14:34N 51°06' E 001°26'1717.3
2017-Jan-18 13:34N 50°58' E 001°51'0 0.2
2017-Jan-18 12:33N 50°58' E 001°50'1717.4
2017-Jan-18 11:33N 51°04' E 001°24'4 4.0
2017-Jan-18 10:33N 51°07' E 001°20'1514.9
2017-Jan-18 09:33N 50°60' E 001°40'7 7.0
2017-Jan-18 08:33N 50°58' E 001°51'1010.4
2017-Jan-18 07:33N 51°00' E 001°35'1211.8
2017-Jan-18 06:33N 51°07' E 001°20'0 0.0
2017-Jan-18 05:33N 51°07' E 001°20'1414.1
2017-Jan-18 04:33N 50°60' E 001°39'8 7.8
2017-Jan-18 03:33N 50°58' E 001°51'1111.0
2017-Jan-18 02:33N 51°01' E 001°34'1111.0
2017-Jan-18 01:33N 51°07' E 001°20'8 7.8
2017-Jan-18 00:33N 51°04' E 001°31'1413.8
2017-Jan-17 23:33N 50°58' E 001°51'5 4.6
2017-Jan-17 22:33N 50°58' E 001°44'1817.7
2017-Jan-17 21:33N 51°07' E 001°20'0 0.0
2017-Jan-17 20:33N 51°07' E 001°20'1312.8
2017-Jan-17 19:34N 51°02' E 001°38'9 8.8
2017-Jan-17 18:33N 50°58' E 001°51'9 8.6
2017-Jan-17 17:33N 51°00' E 001°38'1313.3
2017-Jan-17 16:33N 51°07' E 001°20'6 5.6
2017-Jan-17 15:34N 51°06' E 001°29'1615.7
2017-Jan-17 14:33N 50°58' E 001°50'0 0.4
2017-Jan-17 13:33N 50°58' E 001°51'1818.3
2017-Jan-17 12:34N 51°06' E 001°24'3 3.2
2017-Jan-17 11:33N 51°07' E 001°20'5 5.0
2017-Jan-17 10:33N 51°07' E 001°28'1312.9
2017-Jan-17 09:33N 50°58' E 001°43'5 4.8
2017-Jan-17 08:34N 50°58' E 001°51'1312.6
2017-Jan-17 07:33N 51°02' E 001°32'9 9.1
2017-Jan-17 06:33N 51°07' E 001°20'0 0.2
2017-Jan-17 05:31N 51°07' E 001°20'1010.3
2017-Jan-17 04:33N 51°04' E 001°35'1211.7
2017-Jan-17 03:34N 50°58' E 001°51'0 0.1
2017-Jan-17 02:33N 50°58' E 001°51'1515.2
2017-Jan-17 01:33N 51°02' E 001°28'7 7.1
2017-Jan-17 00:33N 51°07' E 001°20'6 6.1
2017-Jan-16 23:33N 51°05' E 001°29'1515.5
2017-Jan-16 22:34N 50°58' E 001°51'1 0.5
2017-Jan-16 21:34N 50°58' E 001°50'1616.3
2017-Jan-16 20:34N 51°05' E 001°27'5 4.7
2017-Jan-16 19:34N 51°07' E 001°20'9 9.2
2017-Jan-16 18:34N 51°04' E 001°34'1212.4
2017-Jan-16 17:33N 50°58' E 001°51'8 7.6
2017-Jan-16 16:33N 50°58' E 001°39'1514.9
2017-Jan-16 15:33N 51°07' E 001°20'1 0.8
2017-Jan-16 14:33N 51°07' E 001°21'1818.1
2017-Jan-16 13:33N 50°58' E 001°46'3 3.0
2017-Jan-16 12:33N 50°58' E 001°51'1414.1
2017-Jan-16 11:34N 51°03' E 001°30'8 7.8
2017-Jan-16 10:33N 51°07' E 001°20'1312.6
2017-Jan-16 09:33N 51°01' E 001°37'9 9.0
2017-Jan-16 08:33N 50°58' E 001°51'6 5.7
2017-Jan-16 07:34N 50°58' E 001°42'1716.6
2017-Jan-16 06:33N 51°07' E 001°20'0 0.0
2017-Jan-16 05:33N 51°07' E 001°20'10 9.6
2017-Jan-16 04:34N 51°04' E 001°34'1211.9
2017-Jan-16 03:33N 50°58' E 001°51'0 0.0
2017-Jan-16 02:33N 50°58' E 001°51'1211.7
2017-Jan-16 01:33N 51°01' E 001°33'1110.5
2017-Jan-16 00:33N 51°07' E 001°20'7 7.4
2017-Jan-15 23:34N 51°05' E 001°31'1414.3
2017-Jan-15 22:33N 50°58' E 001°51'3 2.7
2017-Jan-15 21:33N 50°58' E 001°47'1413.8
2017-Jan-15 20:33N 51°03' E 001°26'6 5.8
2017-Jan-15 19:33N 51°07' E 001°20'9 8.5
2017-Jan-15 18:33N 51°05' E 001°33'1313.1
2017-Jan-15 17:33N 50°58' E 001°51'4 4.2
2017-Jan-15 16:33N 50°58' E 001°44'1717.5
2017-Jan-15 15:33N 51°07' E 001°21'1 1.4
2017-Jan-15 14:33N 51°07' E 001°23'1817.7
2017-Jan-15 13:33N 50°58' E 001°47'2 2.4
2017-Jan-15 12:33N 50°58' E 001°51'1313.2
2017-Jan-15 11:34N 51°01' E 001°31'9 9.3
2017-Jan-15 10:33N 51°07' E 001°20'1514.5
2017-Jan-15 09:33N 51°01' E 001°41'7 7.1
2017-Jan-15 08:33N 50°58' E 001°51'10 9.6
2017-Jan-15 07:33N 51°01' E 001°36'1212.2
2017-Jan-15 06:33N 51°07' E 001°20'0 0.0
2017-Jan-15 05:33N 51°07' E 001°20'7 7.0
2017-Jan-15 04:33N 51°07' E 001°31'1515.3
2017-Jan-15 03:33N 50°58' E 001°51'0 0.1
2017-Jan-15 02:33N 50°58' E 001°51'9 9.5
2017-Jan-15 01:33N 51°01' E 001°37'1212.3
2017-Jan-15 00:33N 51°07' E 001°20'7 7.4
2017-Jan-14 23:33N 51°05' E 001°31'1414.2
2017-Jan-14 22:33N 50°58' E 001°51'1 0.9
2017-Jan-14 21:33N 50°58' E 001°50'1414.4
2017-Jan-14 20:34N 51°04' E 001°28'6 6.3
2017-Jan-14 19:33N 51°07' E 001°20'1413.8
2017-Jan-14 18:34N 51°01' E 001°40'8 7.9
2017-Jan-14 17:33N 50°58' E 001°51'1010.4
2017-Jan-14 16:33N 50°59' E 001°35'1212.1
2017-Jan-14 15:33N 51°07' E 001°20'9 8.9
2017-Jan-14 14:34N 51°04' E 001°33'1312.7
2017-Jan-14 13:33N 50°58' E 001°51'2 2.5
2017-Jan-14 12:33N 50°58' E 001°47'1919.1
2017-Jan-14 11:33N 51°07' E 001°20'1 1.3
2017-Jan-14 10:33N 51°07' E 001°22'1818.4
2017-Jan-14 09:33N 50°58' E 001°48'2 1.9
2017-Jan-14 08:33N 50°58' E 001°51'1616.1
2017-Jan-14 07:33N 51°03' E 001°26'6 6.2
2017-Jan-14 06:33N 51°07' E 001°20'1111.0
2017-Jan-14 05:34N 51°02' E 001°36'1110.6
2017-Jan-14 04:33N 50°58' E 001°51'1 0.9
2017-Jan-14 03:33N 50°58' E 001°50'1 0.3
2017-Jan-13 23:33N 50°58' E 001°52'2 1.8
2017-Jan-13 22:33N 50°58' E 001°49'1717.5
2017-Jan-13 21:33N 51°06' E 001°24'3 2.8
2017-Jan-13 20:33N 51°07' E 001°20'1414.0
2017-Jan-13 19:33N 51°00' E 001°39'8 7.8
2017-Jan-13 18:33N 50°58' E 001°51'6 6.2
2017-Jan-13 17:33N 50°58' E 001°41'  
Track history (hours):
 
Tides and Currents Weather Stations Pressure Air Temp Water Temp Dewpoint Dewpoint Depression Visibility Wind Speed Wind Dir Waves Ship Positions

Pride Of Burgundy

Operator: P & O Ferries

Last reported at 2017-Jan-23 16:34 UTC. Time now 2017-Jan-23 16:46 UTC.
Position N 51°07' E 001°21'.

Length 180 m; draft 6.2 m.

Type: Passenger vessel. MMSI: 232001470.

Date/timePositionNaut miles runAvg speedWind from/ knotsBaromVisibWave heightAir tempDewpointWater temp
2017-Jan-23 16:34N 51°07' E 001°21'0 0.1
2017-Jan-23 15:33N 51°07' E 001°21'3 3.4
2017-Jan-23 14:33N 51°06' E 001°26'1717.4
2017-Jan-23 13:33N 50°58' E 001°50'0 0.1
2017-Jan-23 12:34N 50°58' E 001°50'1818.1
2017-Jan-23 11:34N 51°06' E 001°24'3 2.8
2017-Jan-23 10:33N 51°07' E 001°20'0 0.3
2017-Jan-23 09:32N 51°08' E 001°21'0 0.0
2017-Jan-23 08:30N 51°08' E 001°21'0 0.0
2017-Jan-23 07:33N 51°08' E 001°21'0 0.0
2017-Jan-23 06:30N 51°08' E 001°21'0 0.3
2017-Jan-23 05:33N 51°07' E 001°20'4 3.8
2017-Jan-23 04:33N 51°06' E 001°26'1817.8
2017-Jan-23 03:34N 50°58' E 001°51'0 0.1
2017-Jan-23 02:33N 50°58' E 001°51'1212.5
2017-Jan-23 01:33N 51°02' E 001°32'9 9.3
2017-Jan-23 00:33N 51°07' E 001°20'6 6.2
2017-Jan-22 23:34N 51°05' E 001°29'1515.3
2017-Jan-22 22:34N 50°58' E 001°51'0 0.4
2017-Jan-22 21:33N 50°58' E 001°50'1918.9
2017-Jan-22 20:33N 51°06' E 001°23'2 2.0
2017-Jan-22 19:33N 51°07' E 001°20'1010.4
2017-Jan-22 18:33N 51°02' E 001°35'1111.1
2017-Jan-22 17:33N 50°58' E 001°51'5 5.2
2017-Jan-22 16:33N 50°58' E 001°43'1717.0
2017-Jan-22 15:33N 51°07' E 001°20'3 2.6
2017-Jan-22 14:34N 51°07' E 001°24'1717.4
2017-Jan-22 13:34N 50°58' E 001°48'2 1.7
2017-Jan-22 12:33N 50°58' E 001°51'1616.0
2017-Jan-22 11:33N 51°04' E 001°28'5 5.5
2017-Jan-22 10:34N 51°07' E 001°20'1514.9
2017-Jan-22 09:34N 51°00' E 001°41'7 6.6
2017-Jan-22 08:33N 50°58' E 001°51'1111.1
2017-Jan-22 07:34N 51°00' E 001°34'1111.3
2017-Jan-22 06:33N 51°07' E 001°20'0 0.0
2017-Jan-22 05:33N 51°07' E 001°20'6 6.0
2017-Jan-22 04:34N 51°05' E 001°29'1615.6
2017-Jan-22 03:34N 50°58' E 001°51'0 0.0
2017-Jan-22 02:34N 50°58' E 001°51'1111.1
2017-Jan-22 01:33N 50°59' E 001°33'1211.8
2017-Jan-22 00:32N 51°07' E 001°20'9 9.0
2017-Jan-21 23:33N 51°03' E 001°33'1312.7
2017-Jan-21 22:33N 50°58' E 001°51'8 8.5
2017-Jan-21 21:34N 51°00' E 001°38'1313.3
2017-Jan-21 20:33N 51°07' E 001°20'8 8.1
2017-Jan-21 19:33N 51°05' E 001°32'1413.5
2017-Jan-21 18:33N 50°58' E 001°51'0 0.0
2017-Jan-21 17:33N 50°58' E 001°51'1312.9
2017-Jan-21 16:33N 51°02' E 001°32'9 8.9
2017-Jan-21 15:33N 51°07' E 001°20'8 8.5
2017-Jan-21 14:34N 51°03' E 001°32'1313.1
2017-Jan-21 13:33N 50°58' E 001°51'6 5.7
2017-Jan-21 12:33N 50°58' E 001°42'1716.4
2017-Jan-21 11:33N 51°07' E 001°20'0 0.2
2017-Jan-21 10:33N 51°07' E 001°20'1110.6
2017-Jan-21 09:34N 51°03' E 001°35'1110.9
2017-Jan-21 08:33N 50°58' E 001°51'7 7.3
2017-Jan-21 07:34N 50°58' E 001°40'1515.1
2017-Jan-21 06:33N 51°07' E 001°20'0 0.2
2017-Jan-21 05:33N 51°07' E 001°20'9 8.6
2017-Jan-21 04:33N 51°04' E 001°33'1312.9
2017-Jan-21 03:33N 50°58' E 001°51'0 0.0
2017-Jan-21 02:33N 50°58' E 001°51'1211.6
2017-Jan-21 01:33N 51°00' E 001°33'1110.7
2017-Jan-21 00:33N 51°07' E 001°20'5 5.4
2017-Jan-20 23:34N 51°04' E 001°27'1616.1
2017-Jan-20 22:33N 50°58' E 001°51'0 0.1
2017-Jan-20 21:33N 50°58' E 001°51'1716.9
2017-Jan-20 20:33N 51°05' E 001°26'5 4.5
2017-Jan-20 19:34N 51°07' E 001°20'1110.8
2017-Jan-20 18:33N 51°03' E 001°36'1110.8
2017-Jan-20 17:33N 50°58' E 001°51'5 5.4
2017-Jan-20 16:33N 50°58' E 001°43'1716.8
2017-Jan-20 15:33N 51°07' E 001°20'1 0.5
2017-Jan-20 14:34N 51°07' E 001°21'1817.9
2017-Jan-20 13:33N 50°58' E 001°45'3 3.5
2017-Jan-20 12:33N 50°58' E 001°51'1414.4
2017-Jan-20 11:33N 51°03' E 001°30'7 7.3
2017-Jan-20 10:33N 51°07' E 001°20'9 9.0
2017-Jan-20 09:33N 51°03' E 001°33'1312.6
2017-Jan-20 08:33N 50°58' E 001°51'5 4.6
2017-Jan-20 07:33N 50°58' E 001°44'1817.5
2017-Jan-20 06:33N 51°07' E 001°20'0 0.0
2017-Jan-20 05:33N 51°07' E 001°20'8 8.5
2017-Jan-20 04:33N 51°04' E 001°32'1313.0
2017-Jan-20 03:33N 50°58' E 001°51'0 0.2
2017-Jan-20 02:33N 50°58' E 001°51'1111.3
2017-Jan-20 01:34N 51°02' E 001°34'1010.4
2017-Jan-20 00:33N 51°07' E 001°20'8 7.6
2017-Jan-19 23:33N 51°06' E 001°32'1414.3
2017-Jan-19 22:34N 50°58' E 001°51'1 1.4
2017-Jan-19 21:33N 50°58' E 001°49'1615.9
2017-Jan-19 20:34N 51°04' E 001°25'5 4.5
2017-Jan-19 19:32N 51°07' E 001°20'1212.2
2017-Jan-19 18:33N 51°02' E 001°37'10 9.6
2017-Jan-19 17:33N 50°58' E 001°51'9 8.6
2017-Jan-19 16:33N 51°00' E 001°38'1313.1
2017-Jan-19 15:33N 51°07' E 001°20'5 4.7
2017-Jan-19 14:33N 51°06' E 001°27'1716.8
2017-Jan-19 13:34N 50°58' E 001°51'2 1.6
2017-Jan-19 12:33N 50°58' E 001°48'1615.9
2017-Jan-19 11:33N 51°04' E 001°25'4 4.1
2017-Jan-19 10:31N 51°07' E 001°20'1111.9
2017-Jan-19 09:34N 51°02' E 001°35'1010.4
2017-Jan-19 08:33N 50°58' E 001°51'5 5.1
2017-Jan-19 07:33N 50°58' E 001°43'1717.1
2017-Jan-19 06:33N 51°07' E 001°20'0 0.1
2017-Jan-19 05:33N 51°07' E 001°20'6 6.3
2017-Jan-19 04:33N 51°05' E 001°29'1515.3
2017-Jan-19 03:34N 50°58' E 001°51'0 0.0
2017-Jan-19 02:34N 50°58' E 001°51'1313.4
2017-Jan-19 01:33N 51°01' E 001°30'9 9.2
2017-Jan-19 00:33N 51°07' E 001°20'6 6.2
2017-Jan-18 23:34N 51°06' E 001°30'1615.5
2017-Jan-18 22:33N 50°58' E 001°51'2 1.9
2017-Jan-18 21:33N 50°58' E 001°48'1817.5
2017-Jan-18 20:33N 51°06' E 001°23'2 2.3
2017-Jan-18 19:33N 51°07' E 001°20'1211.8
2017-Jan-18 18:33N 51°03' E 001°37'10 9.9
2017-Jan-18 17:33N 50°58' E 001°51'7 7.5
2017-Jan-18 16:34N 50°58' E 001°39'1514.9
2017-Jan-18 15:33N 51°07' E 001°20'4 4.1
2017-Jan-18 14:34N 51°06' E 001°26'1717.3
2017-Jan-18 13:34N 50°58' E 001°51'0 0.2
2017-Jan-18 12:33N 50°58' E 001°50'1717.4
2017-Jan-18 11:33N 51°04' E 001°24'4 4.0
2017-Jan-18 10:33N 51°07' E 001°20'1514.9
2017-Jan-18 09:33N 50°60' E 001°40'7 7.0
2017-Jan-18 08:33N 50°58' E 001°51'1010.4
2017-Jan-18 07:33N 51°00' E 001°35'1211.8
2017-Jan-18 06:33N 51°07' E 001°20'0 0.0
2017-Jan-18 05:33N 51°07' E 001°20'1414.1
2017-Jan-18 04:33N 50°60' E 001°39'8 7.8
2017-Jan-18 03:33N 50°58' E 001°51'1111.0
2017-Jan-18 02:33N 51°01' E 001°34'1111.0
2017-Jan-18 01:33N 51°07' E 001°20'8 7.8
2017-Jan-18 00:33N 51°04' E 001°31'1413.8
2017-Jan-17 23:33N 50°58' E 001°51'5 4.6
2017-Jan-17 22:33N 50°58' E 001°44'1817.7
2017-Jan-17 21:33N 51°07' E 001°20'0 0.0
2017-Jan-17 20:33N 51°07' E 001°20'1312.8
2017-Jan-17 19:34N 51°02' E 001°38'9 8.8
2017-Jan-17 18:33N 50°58' E 001°51'9 8.6
2017-Jan-17 17:33N 51°00' E 001°38'1313.3
2017-Jan-17 16:33N 51°07' E 001°20'6 5.6
2017-Jan-17 15:34N 51°06' E 001°29'1615.7
2017-Jan-17 14:33N 50°58' E 001°50'0 0.4
2017-Jan-17 13:33N 50°58' E 001°51'1818.3
2017-Jan-17 12:34N 51°06' E 001°24'3 3.2
2017-Jan-17 11:33N 51°07' E 001°20'5 5.0
2017-Jan-17 10:33N 51°07' E 001°28'1312.9
2017-Jan-17 09:33N 50°58' E 001°43'5 4.8
2017-Jan-17 08:34N 50°58' E 001°51'1312.6
2017-Jan-17 07:33N 51°02' E 001°32'9 9.1
2017-Jan-17 06:33N 51°07' E 001°20'0 0.2
2017-Jan-17 05:31N 51°07' E 001°20'1010.3
2017-Jan-17 04:33N 51°04' E 001°35'1211.7
2017-Jan-17 03:34N 50°58' E 001°51'0 0.1
2017-Jan-17 02:33N 50°58' E 001°51'1515.2
2017-Jan-17 01:33N 51°02' E 001°28'7 7.1
2017-Jan-17 00:33N 51°07' E 001°20'6 6.1
2017-Jan-16 23:33N 51°05' E 001°29'1515.5
2017-Jan-16 22:34N 50°58' E 001°51'1 0.5
2017-Jan-16 21:34N 50°58' E 001°50'1616.3
2017-Jan-16 20:34N 51°05' E 001°27'5 4.7
2017-Jan-16 19:34N 51°07' E 001°20'9 9.2
2017-Jan-16 18:34N 51°04' E 001°34'1212.4
2017-Jan-16 17:33N 50°58' E 001°51'8 7.6
2017-Jan-16 16:33N 50°58' E 001°39'1514.9
2017-Jan-16 15:33N 51°07' E 001°20'1 0.8
2017-Jan-16 14:33N 51°07' E 001°21'1818.1
2017-Jan-16 13:33N 50°58' E 001°46'3 3.0
2017-Jan-16 12:33N 50°58' E 001°51'1414.1
2017-Jan-16 11:34N 51°03' E 001°30'8 7.8
2017-Jan-16 10:33N 51°07' E 001°20'1312.6
2017-Jan-16 09:33N 51°01' E 001°37'9 9.0
2017-Jan-16 08:33N 50°58' E 001°51'6 5.7
2017-Jan-16 07:34N 50°58' E 001°42'1716.6
2017-Jan-16 06:33N 51°07' E 001°20'0 0.0
2017-Jan-16 05:33N 51°07' E 001°20'10 9.6
2017-Jan-16 04:34N 51°04' E 001°34'1211.9
2017-Jan-16 03:33N 50°58' E 001°51'0 0.0
2017-Jan-16 02:33N 50°58' E 001°51'1211.7
2017-Jan-16 01:33N 51°01' E 001°33'1110.5
2017-Jan-16 00:33N 51°07' E 001°20'7 7.4
2017-Jan-15 23:34N 51°05' E 001°31'1414.3
2017-Jan-15 22:33N 50°58' E 001°51'3 2.7
2017-Jan-15 21:33N 50°58' E 001°47'1413.8
2017-Jan-15 20:33N 51°03' E 001°26'6 5.8
2017-Jan-15 19:33N 51°07' E 001°20'9 8.5
2017-Jan-15 18:33N 51°05' E 001°33'1313.1
2017-Jan-15 17:33N 50°58' E 001°51'4 4.2
2017-Jan-15 16:33N 50°58' E 001°44'1717.5
2017-Jan-15 15:33N 51°07' E 001°21'1 1.4
2017-Jan-15 14:33N 51°07' E 001°23'1817.7
2017-Jan-15 13:33N 50°58' E 001°47'2 2.4
2017-Jan-15 12:33N 50°58' E 001°51'1313.2
2017-Jan-15 11:34N 51°01' E 001°31'9 9.3
2017-Jan-15 10:33N 51°07' E 001°20'1514.5
2017-Jan-15 09:33N 51°01' E 001°41'7 7.1
2017-Jan-15 08:33N 50°58' E 001°51'10 9.6
2017-Jan-15 07:33N 51°01' E 001°36'1212.2
2017-Jan-15 06:33N 51°07' E 001°20'0 0.0
2017-Jan-15 05:33N 51°07' E 001°20'7 7.0
2017-Jan-15 04:33N 51°07' E 001°31'1515.3
2017-Jan-15 03:33N 50°58' E 001°51'0 0.1
2017-Jan-15 02:33N 50°58' E 001°51'9 9.5
2017-Jan-15 01:33N 51°01' E 001°37'1212.3
2017-Jan-15 00:33N 51°07' E 001°20'7 7.4
2017-Jan-14 23:33N 51°05' E 001°31'1414.2
2017-Jan-14 22:33N 50°58' E 001°51'1 0.9
2017-Jan-14 21:33N 50°58' E 001°50'1414.4
2017-Jan-14 20:34N 51°04' E 001°28'6 6.3
2017-Jan-14 19:33N 51°07' E 001°20'1413.8
2017-Jan-14 18:34N 51°01' E 001°40'8 7.9
2017-Jan-14 17:33N 50°58' E 001°51'1010.4
2017-Jan-14 16:33N 50°59' E 001°35'1212.1
2017-Jan-14 15:33N 51°07' E 001°20'9 8.9
2017-Jan-14 14:34N 51°04' E 001°33'1312.7
2017-Jan-14 13:33N 50°58' E 001°51'2 2.5
2017-Jan-14 12:33N 50°58' E 001°47'1919.1
2017-Jan-14 11:33N 51°07' E 001°20'1 1.3
2017-Jan-14 10:33N 51°07' E 001°22'1818.4
2017-Jan-14 09:33N 50°58' E 001°48'2 1.9
2017-Jan-14 08:33N 50°58' E 001°51'1616.1
2017-Jan-14 07:33N 51°03' E 001°26'6 6.2
2017-Jan-14 06:33N 51°07' E 001°20'1111.0
2017-Jan-14 05:34N 51°02' E 001°36'1110.6
2017-Jan-14 04:33N 50°58' E 001°51'1 0.9
2017-Jan-14 03:33N 50°58' E 001°50'1 0.3
2017-Jan-13 23:33N 50°58' E 001°52'2 1.8
2017-Jan-13 22:33N 50°58' E 001°49'1717.5
2017-Jan-13 21:33N 51°06' E 001°24'3 2.8
2017-Jan-13 20:33N 51°07' E 001°20'1414.0
2017-Jan-13 19:33N 51°00' E 001°39'8 7.8
2017-Jan-13 18:33N 50°58' E 001°51'6 6.2
2017-Jan-13 17:33N 50°58' E 001°41'  

Dump ship's entire track history